createdAt,value
2023-03-10T00:01:30.329Z,4.70
2023-03-10T00:04:01.047Z,6.03
2023-03-10T00:06:33.554Z,9.05
2023-03-10T00:09:02.212Z,7.78
2023-03-10T00:11:30.129Z,6.63
2023-03-10T00:13:58.026Z,8.13
2023-03-10T00:16:29.329Z,6.70
2023-03-10T00:18:57.855Z,7.30
2023-03-10T00:21:30.931Z,4.38
2023-03-10T00:23:59.726Z,3.47
2023-03-10T00:26:29.691Z,4.93
2023-03-10T00:28:58.145Z,4.10
2023-03-10T00:31:28.223Z,5.10
2023-03-10T00:33:56.667Z,4.63
2023-03-10T00:36:29.132Z,5.20
2023-03-10T00:39:00.996Z,5.47
2023-03-10T00:41:31.465Z,4.63
2023-03-10T00:44:01.159Z,3.45
2023-03-10T00:48:58.269Z,4.07
2023-03-10T00:51:26.305Z,3.85
2023-03-10T00:53:56.037Z,3.60
2023-03-10T00:56:27.551Z,4.78
2023-03-10T00:59:00.549Z,4.60
2023-03-10T01:01:37.557Z,3.35
2023-03-10T01:04:12.302Z,3.63
2023-03-10T01:06:40.466Z,3.08
2023-03-10T01:09:08.884Z,4.47
2023-03-10T01:11:37.147Z,5.97
2023-03-10T01:14:08.109Z,4.50
2023-03-10T01:16:36.242Z,6.50
2023-03-10T01:19:04.427Z,6.43
2023-03-10T01:21:36.349Z,6.53
2023-03-10T01:24:05.618Z,5.32
2023-03-10T01:26:34.083Z,6.78
2023-03-10T01:29:02.237Z,4.75
2023-03-10T01:31:30.154Z,11.15
2023-03-10T01:33:58.547Z,12.88
2023-03-10T01:36:28.389Z,7.05
2023-03-10T01:38:57.722Z,8.57
2023-03-10T01:41:26.402Z,8.48
2023-03-10T01:43:58.380Z,9.40
2023-03-10T01:46:44.636Z,8.80
2023-03-10T01:49:26.492Z,14.27
2023-03-10T01:52:00.442Z,9.43
2023-03-10T01:54:43.324Z,7.95
2023-03-10T01:57:14.062Z,7.45
2023-03-10T01:59:42.946Z,8.38
2023-03-10T02:02:11.506Z,6.28
2023-03-10T02:07:13.743Z,7.30
2023-03-10T02:12:15.313Z,8.75
2023-03-10T02:14:45.807Z,10.70
2023-03-10T02:17:18.301Z,15.90
2023-03-10T02:20:16.891Z,12.10
2023-03-10T02:22:44.855Z,9.35
2023-03-10T02:25:25.191Z,9.75
2023-03-10T02:27:53.952Z,16.88
2023-03-10T02:30:31.020Z,15.98
2023-03-10T02:33:09.253Z,15.52
2023-03-10T02:35:37.338Z,9.20
2023-03-10T02:38:10.144Z,8.05
2023-03-10T02:40:47.654Z,10.82
2023-03-10T02:43:28.436Z,11.02
2023-03-10T02:46:05.567Z,15.70
2023-03-10T02:48:39.172Z,10.52
2023-03-10T02:51:16.558Z,14.48
2023-03-10T02:53:44.662Z,17.30
2023-03-10T02:57:17.617Z,11.18
2023-03-10T02:59:45.622Z,10.00
2023-03-10T03:02:13.595Z,13.35
2023-03-10T03:04:41.513Z,14.02
2023-03-10T03:07:09.724Z,15.25
2023-03-10T03:09:40.193Z,16.00
2023-03-10T03:12:08.854Z,12.10
2023-03-10T03:14:37.732Z,7.03
2023-03-10T03:17:07.604Z,4.97
2023-03-10T03:19:35.735Z,4.88
2023-03-10T03:22:04.032Z,6.22
2023-03-10T03:24:32.726Z,7.10
2023-03-10T03:27:00.553Z,5.75
2023-03-10T03:31:57.572Z,13.10
2023-03-10T03:34:29.956Z,6.68
2023-03-10T03:37:01.679Z,7.20
2023-03-10T03:39:34.659Z,6.45
2023-03-10T03:42:06.174Z,10.93
2023-03-10T03:44:43.495Z,7.38
2023-03-10T03:47:12.354Z,6.63
2023-03-10T03:49:40.715Z,11.80
2023-03-10T03:52:09.013Z,11.10
2023-03-10T03:54:36.981Z,8.82
2023-03-10T03:57:04.955Z,8.45
2023-03-10T03:59:33.026Z,9.23
2023-03-10T04:02:01.558Z,8.23
2023-03-10T04:04:29.587Z,6.93
2023-03-10T04:06:57.938Z,8.10
2023-03-10T04:09:26.249Z,6.63
2023-03-10T04:11:54.657Z,6.70
2023-03-10T04:14:24.955Z,6.97
2023-03-10T04:16:54.721Z,4.28
2023-03-10T04:19:22.706Z,4.72
2023-03-10T04:21:55.051Z,4.40
2023-03-10T04:26:54.108Z,5.95
2023-03-10T04:29:24.703Z,5.25
2023-03-10T04:32:04.812Z,5.78
2023-03-10T04:34:39.342Z,11.80
2023-03-10T04:37:07.685Z,12.38
2023-03-10T04:39:37.229Z,4.20
2023-03-10T04:42:06.398Z,5.22
2023-03-10T04:44:34.842Z,4.85
2023-03-10T04:47:05.996Z,8.40
2023-03-10T04:49:34.129Z,5.18
2023-03-10T04:54:31.362Z,7.25
2023-03-10T04:57:00.104Z,7.63
2023-03-10T04:59:28.455Z,9.02
2023-03-10T05:01:56.864Z,14.75
2023-03-10T05:04:25.137Z,21.05
2023-03-10T05:06:55.211Z,15.85
2023-03-10T05:09:30.279Z,14.85
2023-03-10T05:11:58.674Z,11.57
2023-03-10T05:14:30.609Z,7.20
2023-03-10T05:16:58.617Z,6.47
2023-03-10T05:19:29.008Z,18.58
2023-03-10T05:21:59.254Z,7.22
2023-03-10T05:24:27.926Z,6.78
2023-03-10T05:26:55.954Z,7.07
2023-03-10T05:29:25.258Z,8.43
2023-03-10T05:31:59.730Z,8.90
2023-03-10T05:34:33.318Z,46.20
2023-03-10T05:37:04.188Z,15.90
2023-03-10T05:39:32.449Z,19.92
2023-03-10T05:42:04.046Z,27.13
2023-03-10T05:44:34.752Z,19.27
2023-03-10T05:47:05.544Z,8.15
2023-03-10T05:49:33.717Z,13.02
2023-03-10T05:52:01.635Z,13.93
2023-03-10T05:54:29.706Z,15.27
2023-03-10T05:56:59.019Z,14.00
2023-03-10T05:59:29.042Z,13.10
2023-03-10T06:01:57.297Z,12.32
2023-03-10T06:04:25.787Z,16.38
2023-03-10T06:06:56.265Z,25.67
2023-03-10T06:09:24.277Z,15.55
2023-03-10T06:11:52.183Z,12.50
2023-03-10T06:14:20.145Z,15.40
2023-03-10T06:16:52.090Z,15.52
2023-03-10T06:19:21.928Z,13.40
2023-03-10T06:21:50.276Z,11.55
2023-03-10T06:24:18.814Z,16.13
2023-03-10T06:26:46.798Z,17.33
2023-03-10T06:29:14.887Z,17.55
2023-03-10T06:31:42.873Z,13.07
2023-03-10T06:34:11.131Z,16.45
2023-03-10T06:36:40.602Z,19.75
2023-03-10T06:39:08.780Z,20.65
2023-03-10T06:41:37.712Z,22.88
2023-03-10T06:44:06.066Z,16.77
2023-03-10T06:46:34.679Z,17.25
2023-03-10T06:49:02.587Z,16.10
2023-03-10T06:51:30.706Z,15.48
2023-03-10T06:53:58.582Z,17.02
2023-03-10T06:56:26.618Z,19.55
2023-03-10T06:58:54.543Z,22.00
2023-03-10T07:01:25.800Z,20.40
2023-03-10T07:03:54.537Z,19.98
2023-03-10T07:06:23.484Z,18.33
2023-03-10T07:08:52.811Z,20.55
2023-03-10T07:11:21.266Z,19.45
2023-03-10T07:13:49.286Z,16.77
2023-03-10T07:16:18.023Z,19.35
2023-03-10T07:18:46.191Z,16.20
2023-03-10T07:21:20.121Z,12.52
2023-03-10T07:23:48.579Z,12.18
2023-03-10T07:26:19.023Z,13.35
2023-03-10T07:28:49.690Z,19.85
2023-03-10T07:31:18.273Z,26.58
2023-03-10T07:33:46.970Z,15.52
2023-03-10T07:36:19.034Z,13.48
2023-03-10T07:38:47.375Z,13.27
2023-03-10T07:41:19.862Z,24.13
2023-03-10T07:43:51.357Z,14.80
2023-03-10T07:46:21.052Z,15.32
2023-03-10T07:48:49.593Z,12.80
2023-03-10T07:51:17.661Z,11.43
2023-03-10T07:53:46.264Z,16.13
2023-03-10T07:56:14.882Z,18.42
2023-03-10T07:58:42.962Z,25.40
2023-03-10T08:01:19.358Z,13.27
2023-03-10T08:03:48.058Z,13.60
2023-03-10T08:06:25.455Z,15.50
2023-03-10T08:08:54.288Z,11.13
2023-03-10T08:11:23.075Z,13.07
2023-03-10T08:13:51.454Z,4.32
2023-03-10T08:16:21.390Z,3.70
2023-03-10T08:18:51.699Z,3.00
2023-03-10T08:21:19.748Z,4.07
2023-03-10T08:23:47.954Z,3.50
2023-03-10T08:26:18.291Z,3.35
2023-03-10T08:28:48.275Z,9.10
2023-03-10T08:31:21.569Z,3.53
2023-03-10T08:33:50.165Z,3.65
2023-03-10T08:36:21.122Z,4.40
2023-03-10T08:38:51.281Z,4.32
2023-03-10T08:41:32.435Z,3.33
2023-03-10T08:44:00.877Z,4.20
2023-03-10T08:46:33.375Z,2.60
2023-03-10T08:49:01.947Z,2.92
2023-03-10T08:51:30.101Z,2.63
2023-03-10T08:53:58.109Z,2.20
2023-03-10T08:56:26.740Z,2.95
2023-03-10T08:58:59.188Z,2.92
2023-03-10T09:01:30.817Z,2.35
2023-03-10T09:04:00.032Z,1.95
2023-03-10T09:06:28.993Z,2.03
2023-03-10T09:08:57.440Z,2.08
2023-03-10T09:11:31.846Z,1.50
2023-03-10T09:14:00.978Z,1.52
2023-03-10T09:16:30.289Z,1.63
2023-03-10T09:18:59.478Z,1.25
2023-03-10T09:21:31.946Z,1.60
2023-03-10T09:24:02.655Z,1.23
2023-03-10T09:26:31.258Z,2.20
2023-03-10T09:28:59.335Z,3.30
2023-03-10T09:31:33.077Z,2.30
2023-03-10T09:34:01.440Z,1.95
2023-03-10T09:36:30.046Z,1.85
2023-03-10T09:41:37.000Z,2.22
2023-03-10T09:44:35.180Z,3.28
2023-03-10T09:47:20.130Z,1.33
2023-03-10T09:50:03.923Z,2.63
2023-03-10T09:52:37.422Z,2.03
2023-03-10T09:55:20.834Z,1.33
2023-03-10T09:57:52.502Z,1.40
2023-03-10T10:00:41.693Z,1.50
2023-03-10T10:03:19.368Z,1.67
2023-03-10T10:05:49.687Z,3.17
2023-03-10T10:08:28.681Z,2.50
2023-03-10T10:10:59.189Z,2.45
2023-03-10T10:13:30.849Z,3.40
2023-03-10T10:16:34.594Z,1.50
2023-03-10T10:19:24.823Z,3.10
2023-03-10T10:22:07.794Z,4.07
2023-03-10T10:24:35.764Z,2.25
2023-03-10T10:27:03.833Z,2.13
2023-03-10T10:29:31.868Z,2.00
2023-03-10T10:32:14.654Z,1.45
2023-03-10T10:34:44.861Z,2.25
2023-03-10T10:37:32.608Z,2.10
2023-03-10T10:40:02.055Z,2.05
2023-03-10T10:42:34.759Z,2.28
2023-03-10T10:45:08.319Z,4.68
2023-03-10T10:47:54.884Z,4.72
2023-03-10T10:50:24.436Z,2.85
2023-03-10T10:53:14.026Z,3.63
2023-03-10T10:55:45.052Z,3.75
2023-03-10T10:58:28.659Z,3.30
2023-03-10T11:01:14.657Z,6.32
2023-03-10T11:03:51.223Z,9.85
2023-03-10T11:06:21.712Z,8.55
2023-03-10T11:08:53.014Z,5.05
2023-03-10T11:11:28.860Z,4.20
2023-03-10T11:14:37.801Z,4.97
2023-03-10T11:17:36.566Z,3.95
2023-03-10T11:20:24.970Z,10.23
2023-03-10T11:23:26.069Z,10.57
2023-03-10T11:26:10.635Z,8.93
2023-03-10T11:28:49.266Z,16.55
2023-03-10T11:31:24.206Z,7.90
2023-03-10T11:34:07.263Z,9.65
2023-03-10T11:36:59.422Z,7.38
2023-03-10T11:39:32.736Z,5.07
2023-03-10T11:42:39.738Z,3.05
2023-03-10T11:45:14.050Z,2.85
2023-03-10T11:48:02.389Z,6.50
2023-03-10T11:50:53.120Z,7.22
2023-03-10T11:53:32.951Z,19.95
2023-03-10T11:56:02.724Z,24.70
2023-03-10T11:58:41.976Z,2.50
2023-03-10T12:01:15.468Z,4.20
2023-03-10T12:03:49.468Z,2.75
2023-03-10T12:06:28.395Z,4.00
2023-03-10T12:08:58.907Z,2.47
2023-03-10T12:11:29.378Z,5.60
2023-03-10T12:14:00.697Z,18.15
2023-03-10T12:16:36.802Z,16.20
2023-03-10T12:19:06.460Z,11.23
2023-03-10T12:21:34.854Z,7.13
2023-03-10T12:24:04.461Z,6.13
2023-03-10T12:26:59.938Z,10.38
2023-03-10T12:29:41.130Z,8.65
2023-03-10T12:35:23.259Z,8.15
2023-03-10T12:38:31.160Z,8.00
2023-03-10T12:41:01.366Z,7.82
2023-03-10T12:43:47.689Z,17.08
2023-03-10T12:46:40.608Z,24.30
2023-03-10T12:49:20.864Z,9.90
2023-03-10T12:51:54.979Z,5.75
2023-03-10T12:54:44.752Z,6.63
2023-03-10T12:57:52.366Z,9.57
2023-03-10T13:00:38.842Z,11.82
2023-03-10T13:03:09.976Z,15.98
2023-03-10T13:05:42.098Z,12.07
2023-03-10T13:08:24.815Z,11.00
2023-03-10T13:10:55.389Z,10.00
2023-03-10T13:13:30.343Z,3.80
2023-03-10T13:16:01.437Z,4.45
2023-03-10T13:18:29.729Z,5.78
2023-03-10T13:21:01.876Z,8.98
2023-03-10T13:23:34.591Z,9.13
2023-03-10T13:26:08.116Z,4.00
2023-03-10T13:28:36.708Z,6.00
2023-03-10T13:31:12.612Z,6.93
2023-03-10T13:33:52.278Z,2.88
2023-03-10T13:39:25.618Z,3.72
2023-03-10T13:41:58.813Z,4.28
2023-03-10T13:44:38.833Z,2.90
2023-03-10T13:47:42.160Z,2.17
2023-03-10T13:50:15.868Z,3.38
2023-03-10T13:52:59.926Z,3.67
2023-03-10T13:55:29.218Z,3.20
2023-03-10T13:57:58.474Z,4.10
2023-03-10T14:00:27.676Z,4.78
2023-03-10T14:02:56.338Z,4.10
2023-03-10T14:05:46.069Z,4.95
2023-03-10T14:08:21.421Z,5.25
2023-03-10T14:10:50.160Z,5.85
2023-03-10T14:13:44.132Z,4.00
2023-03-10T14:16:12.797Z,3.67
2023-03-10T14:18:42.921Z,4.88
2023-03-10T14:21:31.647Z,6.15
2023-03-10T14:24:05.069Z,3.72
2023-03-10T14:26:34.192Z,7.05
2023-03-10T14:29:06.664Z,4.82
2023-03-10T14:31:34.758Z,3.28
2023-03-10T14:34:03.012Z,2.55
2023-03-10T14:36:31.197Z,2.88
2023-03-10T14:38:59.527Z,2.40
2023-03-10T14:41:28.090Z,3.70
2023-03-10T14:43:55.964Z,3.20
2023-03-10T14:46:24.195Z,2.50
2023-03-10T14:48:52.361Z,2.20
2023-03-10T14:51:34.656Z,2.47
2023-03-10T14:54:04.102Z,2.60
2023-03-10T14:56:33.600Z,3.30
2023-03-10T14:59:02.722Z,1.70
2023-03-10T15:01:31.360Z,22.38
2023-03-10T15:03:59.473Z,9.73
2023-03-10T15:06:27.507Z,8.80
2023-03-10T15:08:55.661Z,3.85
2023-03-10T15:11:36.220Z,5.10
2023-03-10T15:14:15.666Z,3.33
2023-03-10T15:16:44.270Z,3.72
2023-03-10T15:19:25.140Z,15.80
2023-03-10T15:24:22.004Z,7.20
2023-03-10T15:26:50.684Z,19.05
2023-03-10T15:29:20.650Z,29.02
2023-03-10T15:31:48.921Z,51.03
2023-03-10T15:34:18.781Z,56.13
2023-03-10T15:36:48.000Z,20.02
2023-03-10T15:39:25.529Z,17.65
2023-03-10T15:41:59.420Z,9.23
2023-03-10T15:44:27.504Z,6.25
2023-03-10T15:46:56.251Z,12.05
2023-03-10T15:49:24.852Z,12.32
2023-03-10T15:51:53.214Z,10.65
2023-03-10T15:54:21.780Z,40.72
2023-03-10T15:56:50.086Z,34.97
2023-03-10T15:59:18.368Z,19.60
2023-03-10T16:01:46.531Z,10.18
2023-03-10T16:04:15.010Z,8.52
2023-03-10T16:06:43.147Z,4.70
2023-03-10T16:09:11.676Z,4.47
2023-03-10T16:11:39.899Z,3.78
2023-03-10T16:14:08.366Z,6.72
2023-03-10T16:16:36.769Z,7.15
2023-03-10T16:19:05.436Z,9.55
2023-03-10T16:21:33.930Z,8.65
2023-03-10T16:24:02.402Z,10.90
2023-03-10T16:26:30.771Z,25.13
2023-03-10T16:28:59.332Z,28.42
2023-03-10T16:31:28.173Z,23.13
2023-03-10T16:36:27.683Z,16.90
2023-03-10T16:38:56.763Z,12.02
2023-03-10T16:43:54.934Z,20.35
2023-03-10T16:46:26.104Z,21.70
2023-03-10T16:48:55.979Z,23.17
2023-03-10T16:51:33.269Z,24.08
2023-03-10T16:54:12.210Z,24.55
2023-03-10T16:56:44.432Z,30.08
2023-03-10T16:59:18.044Z,48.45
2023-03-10T17:01:48.471Z,38.00
2023-03-10T17:04:17.423Z,32.67
2023-03-10T17:06:47.187Z,31.10
2023-03-10T17:09:28.296Z,31.05
2023-03-10T17:11:56.911Z,25.52
2023-03-10T17:14:28.501Z,27.92
2023-03-10T17:16:57.048Z,21.65
2023-03-10T17:19:33.005Z,9.10
2023-03-10T17:22:07.485Z,5.78
2023-03-10T17:24:36.772Z,18.50
2023-03-10T17:27:07.830Z,4.60
2023-03-10T17:29:37.176Z,6.47
2023-03-10T17:32:06.670Z,11.98
2023-03-10T17:34:35.096Z,10.32
2023-03-10T17:37:03.374Z,15.57
2023-03-10T17:39:43.141Z,17.23
2023-03-10T17:42:12.418Z,48.10
2023-03-10T17:44:40.899Z,31.00
2023-03-10T17:49:55.721Z,9.30
2023-03-10T17:52:26.522Z,16.63
2023-03-10T17:54:55.331Z,12.00
2023-03-10T17:57:24.326Z,36.67
2023-03-10T18:02:21.154Z,10.93
2023-03-10T18:04:49.599Z,14.70
2023-03-10T18:10:00.318Z,10.15
2023-03-10T18:12:38.910Z,7.22
2023-03-10T18:15:13.151Z,7.50
2023-03-10T18:17:46.759Z,6.40
2023-03-10T18:20:17.318Z,14.55
2023-03-10T18:22:46.408Z,19.38
2023-03-10T18:25:15.704Z,17.92
2023-03-10T18:27:44.430Z,18.75
2023-03-10T18:30:15.630Z,22.98
2023-03-10T18:32:44.270Z,20.38
2023-03-10T18:35:13.220Z,16.92
2023-03-10T18:40:22.021Z,16.48
2023-03-10T18:42:51.290Z,11.48
2023-03-10T18:45:22.080Z,20.85
2023-03-10T18:50:42.961Z,15.32
2023-03-10T18:53:11.544Z,12.23
2023-03-10T18:55:41.999Z,12.50
2023-03-10T18:58:18.559Z,13.68
2023-03-10T19:03:30.477Z,12.15
2023-03-10T19:05:59.168Z,11.88
2023-03-10T19:08:27.612Z,13.75
2023-03-10T19:13:46.412Z,11.68
2023-03-10T19:16:14.929Z,12.25
2023-03-10T19:18:44.556Z,11.90
2023-03-10T19:21:13.567Z,17.20
2023-03-10T19:26:12.988Z,10.60
2023-03-10T19:28:41.867Z,8.50
2023-03-10T19:33:40.107Z,5.55
2023-03-10T19:36:13.399Z,12.07
2023-03-10T19:38:43.748Z,15.63
2023-03-10T19:41:19.308Z,9.95
2023-03-10T19:43:51.774Z,10.32
2023-03-10T19:46:20.646Z,12.82
2023-03-10T19:51:23.415Z,14.55
2023-03-10T19:53:53.665Z,15.50
2023-03-10T19:56:22.948Z,15.50
2023-03-10T19:58:51.594Z,13.98
2023-03-10T20:01:24.708Z,15.48
2023-03-10T20:03:56.430Z,15.45
2023-03-10T20:06:25.511Z,11.88
2023-03-10T20:08:54.821Z,11.02
2023-03-10T20:11:23.950Z,15.23
2023-03-10T20:13:54.360Z,14.90
2023-03-10T20:16:24.494Z,6.95
2023-03-10T20:18:53.210Z,6.80
2023-03-10T20:21:22.020Z,6.13
2023-03-10T20:26:19.266Z,3.38
2023-03-10T20:28:49.953Z,11.93
2023-03-10T20:31:22.299Z,15.82
2023-03-10T20:33:51.022Z,17.42
2023-03-10T20:36:19.159Z,16.90
2023-03-10T20:38:48.052Z,16.30
2023-03-10T20:41:18.704Z,16.48
2023-03-10T20:43:48.193Z,18.73
2023-03-10T20:46:20.531Z,19.10
2023-03-10T20:48:51.971Z,15.93
2023-03-10T20:51:22.893Z,6.90
2023-03-10T20:53:52.247Z,13.52
2023-03-10T20:56:20.454Z,10.60
2023-03-10T20:58:49.061Z,10.23
2023-03-10T21:01:21.075Z,13.23
2023-03-10T21:03:50.092Z,14.40
2023-03-10T21:06:18.653Z,13.48
2023-03-10T21:08:48.020Z,13.77
2023-03-10T21:11:17.865Z,14.00
2023-03-10T21:13:46.299Z,8.95
2023-03-10T21:16:14.984Z,6.32
2023-03-10T21:18:43.551Z,6.72
2023-03-10T21:21:14.034Z,8.85
2023-03-10T21:23:43.436Z,12.82
2023-03-10T21:26:19.237Z,11.43
2023-03-10T21:28:47.749Z,7.95
2023-03-10T21:31:16.560Z,8.55
2023-03-10T21:33:45.687Z,21.38
2023-03-10T21:36:20.894Z,18.42
2023-03-10T21:38:50.558Z,15.52
2023-03-10T21:41:24.518Z,11.98
2023-03-10T21:43:57.512Z,13.90
2023-03-10T21:46:26.668Z,15.05
2023-03-10T21:48:55.917Z,9.05
2023-03-10T21:51:25.364Z,8.88
2023-03-10T21:53:54.583Z,8.88
2023-03-10T21:56:26.067Z,10.18
2023-03-10T21:58:54.154Z,12.13
2023-03-10T22:01:24.271Z,29.80
2023-03-10T22:03:52.529Z,21.30
2023-03-10T22:06:21.001Z,16.75
2023-03-10T22:08:49.678Z,16.90
2023-03-10T22:11:18.071Z,14.90
2023-03-10T22:13:46.610Z,19.02
2023-03-10T22:16:17.230Z,17.00
2023-03-10T22:18:46.182Z,15.77
2023-03-10T22:23:44.013Z,7.80
2023-03-10T22:26:13.101Z,6.22
2023-03-10T22:28:41.126Z,7.55
2023-03-10T22:31:10.190Z,7.22
2023-03-10T22:33:38.414Z,8.13
2023-03-10T22:36:09.386Z,14.85
2023-03-10T22:38:38.729Z,6.43
2023-03-10T22:41:11.431Z,7.30
2023-03-10T22:43:40.036Z,6.22
2023-03-10T22:46:13.301Z,9.10
2023-03-10T22:48:42.977Z,9.40
2023-03-10T22:51:14.709Z,10.27
2023-03-10T22:53:42.728Z,8.63
2023-03-10T22:56:10.608Z,8.75
2023-03-10T22:58:41.237Z,7.43
2023-03-10T23:01:09.280Z,7.60
2023-03-10T23:03:37.694Z,8.10
2023-03-10T23:06:07.572Z,10.27
2023-03-10T23:08:40.270Z,9.82
2023-03-10T23:11:12.833Z,9.05
2023-03-10T23:13:41.269Z,9.07
2023-03-10T23:16:09.252Z,9.68
2023-03-10T23:18:37.307Z,15.10
2023-03-10T23:21:05.666Z,10.63
2023-03-10T23:23:33.972Z,10.32
2023-03-10T23:26:02.138Z,9.75
2023-03-10T23:28:30.062Z,10.98
2023-03-10T23:31:00.000Z,14.32
2023-03-10T23:33:28.061Z,13.25
2023-03-10T23:35:56.048Z,11.85
2023-03-10T23:38:25.850Z,18.48
2023-03-10T23:40:55.633Z,16.20
2023-03-10T23:43:24.141Z,10.93
2023-03-10T23:45:52.598Z,8.35
2023-03-10T23:48:21.111Z,6.38
2023-03-10T23:50:49.037Z,7.50
2023-03-10T23:53:20.909Z,7.63
2023-03-10T23:55:49.735Z,6.75
2023-03-10T23:58:19.809Z,6.40
